Time;durP1;ratioP1;P1;durP2;ratioP2;P2;SDS_P1;SDS_P2;PMS_P1;PMS_P2;Temp;Humidity;BMP_temperature;BMP_pressure;BME280_temperature;BME280_humidity;BME280_pressure;Samples;Min_cycle;Max_cycle;Signal;HPM_P1;HPM_P2
2022/11/20 00:01:52;;;;;;;;;;;-0.70;99.90;;;;;;4971462;28;209390;-73
2022/11/20 00:04:18;;;;;;;;;;;-0.70;99.90;;;;;;4978280;28;19949;-74
2022/11/20 00:06:44;;;;;;;;;;;-0.70;99.90;;;;;;4946476;28;206201;-73
2022/11/20 00:09:10;;;;;;;;;;;-0.70;99.90;;;;;;4976490;28;20344;-73
2022/11/20 00:11:36;;;;;;;;;;;-0.60;99.90;;;;;;4969509;28;205959;-73
2022/11/20 00:14:02;;;;;;;;;;;-0.60;99.90;;;;;;5010182;28;19953;-72
2022/11/20 00:16:30;;;;;;;;;;;-0.60;99.90;;;;;;4959869;28;186278;-73
2022/11/20 00:18:56;;;;;;;;;;;-0.50;99.90;;;;;;4974273;28;19934;-72
2022/11/20 00:21:26;;;;;;;;;;;-0.50;99.90;;;;;;4953614;28;209490;-72
2022/11/20 00:23:53;;;;;;;;;;;-0.50;99.90;;;;;;4960871;28;20180;-72
2022/11/20 00:26:20;;;;;;;;;;;-0.50;99.90;;;;;;4940318;28;217352;-72
2022/11/20 00:28:51;;;;;;;;;;;-0.50;99.90;;;;;;4971760;28;19922;-74
2022/11/20 00:31:17;;;;;;;;;;;-0.50;99.90;;;;;;4971874;28;208123;-72
2022/11/20 00:33:44;;;;;;;;;;;-0.50;99.90;;;;;;4982382;28;19923;-73
2022/11/20 00:36:14;;;;;;;;;;;-0.50;99.90;;;;;;4965269;28;220268;-73
2022/11/20 00:38:40;;;;;;;;;;;-0.50;99.90;;;;;;5004580;28;19937;-73
2022/11/20 00:41:07;;;;;;;;;;;-0.50;99.90;;;;;;4973026;28;175066;-73
2022/11/20 00:43:33;;;;;;;;;;;-0.40;99.90;;;;;;4976600;28;19930;-73
2022/11/20 00:46:00;;;;;;;;;;;-0.40;99.90;;;;;;4961789;28;205750;-73
2022/11/20 00:48:27;;;;;;;;;;;-0.40;99.90;;;;;;5000794;28;19937;-72
2022/11/20 00:50:53;;;;;;;;;;;-0.40;99.90;;;;;;4964712;28;211807;-73
2022/11/20 00:53:19;;;;;;;;;;;-0.40;99.90;;;;;;5017358;28;19930;-74
2022/11/20 00:55:58;;;;;;;;;;;-0.40;99.90;;;;;;4950981;28;207965;-72
2022/11/20 00:58:24;;;;;;;;;;;-0.40;99.90;;;;;;4988729;28;20304;-72
2022/11/20 01:00:51;;;;;;;;;;;-0.40;99.90;;;;;;4948835;28;214404;-73
2022/11/20 01:03:17;;;;;;;;;;;-0.40;99.90;;;;;;5001087;28;19929;-72
2022/11/20 01:05:43;;;;;;;;;;;-0.40;99.90;;;;;;4955680;28;143650;-72
2022/11/20 01:08:09;;;;;;;;;;;-0.40;99.90;;;;;;5007264;28;19926;-72
2022/11/20 01:10:35;;;;;;;;;;;-0.40;99.90;;;;;;4968917;28;209112;-73
2022/11/20 01:15:46;;;;;;;;;;;-0.30;99.90;;;;;;4956752;28;211579;-73
2022/11/20 01:18:12;;;;;;;;;;;-0.30;99.90;;;;;;4978399;28;19937;-73
2022/11/20 01:20:38;;;;;;;;;;;-0.30;99.90;;;;;;4953806;28;143011;-73
2022/11/20 01:23:05;;;;;;;;;;;-0.30;99.90;;;;;;5008641;28;20437;-73
2022/11/20 01:25:31;;;;;;;;;;;-0.20;99.90;;;;;;4966959;28;152253;-73
2022/11/20 01:27:57;;;;;;;;;;;-0.20;99.90;;;;;;4989848;28;19932;-73
2022/11/20 01:30:23;;;;;;;;;;;-0.20;99.90;;;;;;4960856;28;165653;-74
2022/11/20 01:32:49;;;;;;;;;;;-0.20;99.90;;;;;;4974496;28;20371;-73
2022/11/20 01:35:15;;;;;;;;;;;-0.20;99.90;;;;;;4925621;28;216251;-73
2022/11/20 01:37:41;;;;;;;;;;;-0.20;99.90;;;;;;4970519;28;19918;-73
2022/11/20 01:40:07;;;;;;;;;;;-0.20;99.90;;;;;;4925947;28;219898;-75
2022/11/20 01:45:39;;;;;;;;;;;-0.20;99.90;;;;;;4928653;28;223276;-74
2022/11/20 01:48:05;;;;;;;;;;;-0.20;99.90;;;;;;5005592;28;19926;-74
2022/11/20 01:50:33;;;;;;;;;;;-0.20;99.90;;;;;;4954475;28;191320;-72
2022/11/20 01:53:01;;;;;;;;;;;-0.20;99.90;;;;;;5007631;28;19930;-73
2022/11/20 01:55:32;;;;;;;;;;;-0.20;99.90;;;;;;4931463;28;209294;-73
2022/11/20 01:57:59;;;;;;;;;;;-0.20;99.90;;;;;;4984779;28;19923;-74
2022/11/20 02:00:25;;;;;;;;;;;-0.20;99.90;;;;;;4966366;28;115383;-74
2022/11/20 02:02:53;;;;;;;;;;;-0.20;99.90;;;;;;4973414;28;19923;-74
2022/11/20 02:05:20;;;;;;;;;;;-0.20;99.90;;;;;;4911557;28;207027;-74
2022/11/20 02:07:48;;;;;;;;;;;-0.20;99.90;;;;;;5007389;28;19937;-74
2022/11/20 02:10:14;;;;;;;;;;;-0.20;99.90;;;;;;4947237;28;209769;-74
2022/11/20 02:15:27;;;;;;;;;;;-0.10;99.90;;;;;;4941285;28;206813;-74
2022/11/20 02:17:53;;;;;;;;;;;-0.10;99.90;;;;;;5005119;28;19930;-74
2022/11/20 02:20:19;;;;;;;;;;;-0.10;99.90;;;;;;4974050;28;138327;-75
2022/11/20 02:22:56;;;;;;;;;;;-0.10;99.90;;;;;;5007187;28;19933;-74
2022/11/20 02:25:23;;;;;;;;;;;-0.10;99.90;;;;;;4966331;28;215028;-74
2022/11/20 02:27:50;;;;;;;;;;;-0.10;99.90;;;;;;5006671;28;20195;-74
2022/11/20 02:30:16;;;;;;;;;;;-0.10;99.90;;;;;;4950926;28;207638;-74
2022/11/20 02:32:43;;;;;;;;;;;-0.10;99.90;;;;;;4972663;28;19918;-73
2022/11/20 02:35:29;;;;;;;;;;;-0.10;99.90;;;;;;4944823;28;222466;-73
2022/11/20 02:37:56;;;;;;;;;;;-0.10;99.90;;;;;;5004699;28;19930;-74
2022/11/20 02:40:22;;;;;;;;;;;-0.10;99.90;;;;;;4966512;28;184073;-74
2022/11/20 02:42:51;;;;;;;;;;;0.00;99.90;;;;;;4989629;28;20305;-74
2022/11/20 02:45:17;;;;;;;;;;;-0.10;99.90;;;;;;4934569;28;209200;-73
2022/11/20 02:47:44;;;;;;;;;;;0.00;99.90;;;;;;5006766;28;19922;-74
2022/11/20 02:50:10;;;;;;;;;;;0.00;99.90;;;;;;4934099;28;206868;-74
2022/11/20 02:52:36;;;;;;;;;;;0.00;99.90;;;;;;5005106;28;19929;-73
2022/11/20 02:55:02;;;;;;;;;;;0.00;99.90;;;;;;4978796;28;206359;-73
2022/11/20 02:57:30;;;;;;;;;;;0.00;99.90;;;;;;4947893;28;19923;-73
2022/11/20 02:59:56;;;;;;;;;;;0.00;99.90;;;;;;4973466;28;207017;-73
2022/11/20 03:02:22;;;;;;;;;;;0.00;99.90;;;;;;4959261;28;115825;-73
2022/11/20 03:04:48;;;;;;;;;;;0.00;99.90;;;;;;4990579;28;19926;-74
2022/11/20 03:07:14;;;;;;;;;;;0.00;99.90;;;;;;4967044;28;210131;-73
2022/11/20 03:09:40;;;;;;;;;;;0.00;99.90;;;;;;4983526;28;19930;-74
2022/11/20 03:12:08;;;;;;;;;;;0.00;99.90;;;;;;4943590;28;214766;-74
2022/11/20 03:14:34;;;;;;;;;;;0.00;99.90;;;;;;4990409;28;19922;-74
2022/11/20 03:17:00;;;;;;;;;;;0.10;99.90;;;;;;4973578;28;205680;-73
2022/11/20 03:19:26;;;;;;;;;;;0.00;99.90;;;;;;5023504;28;19926;-75
2022/11/20 03:21:54;;;;;;;;;;;0.10;99.90;;;;;;4945869;28;209533;-75
2022/11/20 03:24:20;;;;;;;;;;;0.00;99.90;;;;;;4958978;28;19922;-75
2022/11/20 03:26:46;;;;;;;;;;;0.10;99.90;;;;;;4968791;28;207435;-75
2022/11/20 03:29:12;;;;;;;;;;;0.10;99.90;;;;;;5010600;28;20406;-72
2022/11/20 03:31:40;;;;;;;;;;;0.10;99.90;;;;;;4966830;28;214519;-73
2022/11/20 03:34:07;;;;;;;;;;;0.10;99.90;;;;;;5012074;28;19929;-74
2022/11/20 03:36:33;;;;;;;;;;;0.10;99.90;;;;;;4951529;28;163989;-74
2022/11/20 03:38:59;;;;;;;;;;;0.10;99.90;;;;;;4965131;28;19923;-74
2022/11/20 03:41:27;;;;;;;;;;;0.10;99.90;;;;;;4960708;28;209251;-75
2022/11/20 03:43:55;;;;;;;;;;;0.10;99.90;;;;;;4982468;28;19926;-75
2022/11/20 03:46:21;;;;;;;;;;;0.10;99.90;;;;;;4954313;28;208708;-74
2022/11/20 03:48:48;;;;;;;;;;;0.10;99.90;;;;;;4978792;28;20287;-73
2022/11/20 03:51:15;;;;;;;;;;;0.10;99.90;;;;;;4946711;28;208765;-75
2022/11/20 03:53:42;;;;;;;;;;;0.10;99.90;;;;;;4981658;28;19926;-74
2022/11/20 03:56:08;;;;;;;;;;;0.20;99.90;;;;;;4953257;28;207135;-75
2022/11/20 03:58:37;;;;;;;;;;;0.10;99.90;;;;;;4988936;28;19929;-75
2022/11/20 04:01:13;;;;;;;;;;;0.20;99.90;;;;;;4945184;28;209741;-75
2022/11/20 04:03:40;;;;;;;;;;;0.20;99.90;;;;;;4982393;28;20556;-74
2022/11/20 04:06:10;;;;;;;;;;;0.20;99.90;;;;;;4947969;28;212559;-73
2022/11/20 04:08:37;;;;;;;;;;;0.30;99.90;;;;;;4978846;28;19922;-75
2022/11/20 04:11:16;;;;;;;;;;;0.30;99.90;;;;;;4954818;28;207391;-74
2022/11/20 04:13:45;;;;;;;;;;;0.30;99.90;;;;;;4995607;28;19922;-75
2022/11/20 04:16:11;;;;;;;;;;;0.30;99.90;;;;;;4978527;28;129707;-74
2022/11/20 04:18:38;;;;;;;;;;;0.30;99.90;;;;;;5017598;28;20012;-74
2022/11/20 04:21:04;;;;;;;;;;;0.30;99.90;;;;;;4953952;28;208649;-74
2022/11/20 04:23:30;;;;;;;;;;;0.30;99.90;;;;;;4989881;28;19948;-75
2022/11/20 04:26:22;;;;;;;;;;;0.30;99.90;;;;;;4952840;28;207232;-75
2022/11/20 04:28:49;;;;;;;;;;;0.30;99.90;;;;;;4970809;28;20020;-74
2022/11/20 04:31:16;;;;;;;;;;;0.20;99.90;;;;;;4944460;28;208777;-74
2022/11/20 04:33:42;;;;;;;;;;;0.30;99.90;;;;;;4986455;28;19923;-75
2022/11/20 04:36:16;;;;;;;;;;;0.20;99.90;;;;;;4936417;28;205049;-75
2022/11/20 04:38:42;;;;;;;;;;;0.20;99.90;;;;;;4959168;28;19933;-75
2022/11/20 04:41:13;;;;;;;;;;;0.20;99.90;;;;;;4937867;28;113054;-75
2022/11/20 04:43:39;;;;;;;;;;;0.20;99.90;;;;;;4959385;28;19926;-74
2022/11/20 04:46:05;;;;;;;;;;;0.20;99.90;;;;;;4940754;28;156068;-75
2022/11/20 04:48:31;;;;;;;;;;;0.20;99.90;;;;;;4952741;28;19950;-74
2022/11/20 04:51:02;;;;;;;;;;;0.20;99.90;;;;;;4914724;28;166054;-74
2022/11/20 04:53:28;;;;;;;;;;;0.20;99.90;;;;;;4958341;28;19934;-74
2022/11/20 04:56:05;;;;;;;;;;;0.20;99.90;;;;;;4921551;28;207580;-75
2022/11/20 04:58:32;;;;;;;;;;;0.20;99.90;;;;;;4965942;28;19927;-75
2022/11/20 05:01:02;;;;;;;;;;;0.30;99.90;;;;;;4897943;28;207590;-75
2022/11/20 05:03:28;;;;;;;;;;;0.30;99.90;;;;;;4942421;28;20462;-76
2022/11/20 05:05:54;;;;;;;;;;;0.30;99.90;;;;;;4911315;28;212238;-74
2022/11/20 05:08:23;;;;;;;;;;;0.30;99.90;;;;;;4995264;28;19957;-75
2022/11/20 05:10:49;;;;;;;;;;;0.30;99.90;;;;;;4940018;28;208774;-75
2022/11/20 05:13:15;;;;;;;;;;;0.30;99.90;;;;;;5000692;28;19926;-75
2022/11/20 05:15:41;;;;;;;;;;;0.30;99.90;;;;;;4969949;28;124591;-75
2022/11/20 05:18:07;;;;;;;;;;;0.40;99.90;;;;;;4987395;28;19953;-75
2022/11/20 05:20:33;;;;;;;;;;;0.40;99.90;;;;;;4970809;28;165340;-75
2022/11/20 05:23:01;;;;;;;;;;;0.40;99.90;;;;;;5022104;28;20017;-75
2022/11/20 05:25:27;;;;;;;;;;;0.40;99.90;;;;;;4936030;28;213666;-75
2022/11/20 05:27:53;;;;;;;;;;;0.40;99.90;;;;;;4999389;28;19942;-75
2022/11/20 05:30:20;;;;;;;;;;;0.40;99.90;;;;;;4966348;28;157420;-75
2022/11/20 05:32:46;;;;;;;;;;;0.40;99.90;;;;;;5003594;28;19918;-75
2022/11/20 05:35:12;;;;;;;;;;;0.40;99.90;;;;;;4932705;28;219943;-75
2022/11/20 05:37:39;;;;;;;;;;;0.50;99.90;;;;;;4993532;28;19918;-75
2022/11/20 05:40:05;;;;;;;;;;;0.50;99.90;;;;;;4965734;28;209138;-74
2022/11/20 05:42:31;;;;;;;;;;;0.50;99.90;;;;;;4992607;28;19926;-74
2022/11/20 05:44:58;;;;;;;;;;;0.50;99.90;;;;;;4961137;28;206592;-74
2022/11/20 05:47:24;;;;;;;;;;;0.40;99.90;;;;;;4988414;28;266805;-75
2022/11/20 05:49:51;;;;;;;;;;;0.40;99.90;;;;;;5010203;28;19922;-75
2022/11/20 05:52:17;;;;;;;;;;;0.40;99.90;;;;;;4972005;28;206167;-74
2022/11/20 05:54:43;;;;;;;;;;;0.40;99.90;;;;;;4979866;28;19923;-74
2022/11/20 05:57:09;;;;;;;;;;;0.40;99.90;;;;;;4945163;28;166454;-75
2022/11/20 05:59:35;;;;;;;;;;;0.40;99.90;;;;;;4963256;28;19938;-74
2022/11/20 06:02:01;;;;;;;;;;;0.50;99.90;;;;;;4980200;28;141457;-74
2022/11/20 06:04:27;;;;;;;;;;;0.50;99.90;;;;;;5013355;28;19930;-73
2022/11/20 06:06:54;;;;;;;;;;;0.50;99.90;;;;;;4969975;28;157777;-74
2022/11/20 06:09:20;;;;;;;;;;;0.50;99.90;;;;;;4995542;28;20591;-73
2022/11/20 06:11:46;;;;;;;;;;;0.50;99.90;;;;;;4973672;28;206250;-74
2022/11/20 06:14:13;;;;;;;;;;;0.50;99.90;;;;;;4984116;28;19937;-74
2022/11/20 06:16:39;;;;;;;;;;;0.50;99.90;;;;;;4977609;28;208504;-74
2022/11/20 06:19:04;;;;;;;;;;;0.50;99.90;;;;;;5012519;28;19926;-74
2022/11/20 06:21:30;;;;;;;;;;;0.50;99.90;;;;;;4972144;28;132837;-74
2022/11/20 06:23:56;;;;;;;;;;;0.50;99.90;;;;;;4975085;28;19930;-73
2022/11/20 06:26:23;;;;;;;;;;;0.50;99.90;;;;;;4975114;28;130445;-74
2022/11/20 06:28:51;;;;;;;;;;;0.60;99.90;;;;;;4988205;28;19929;-73
2022/11/20 06:31:19;;;;;;;;;;;0.50;99.90;;;;;;4957082;28;158209;-74
2022/11/20 06:33:46;;;;;;;;;;;0.50;99.90;;;;;;4968885;28;19926;-74
2022/11/20 06:36:13;;;;;;;;;;;0.60;99.90;;;;;;4954066;28;200600;-73
2022/11/20 06:38:39;;;;;;;;;;;0.50;99.90;;;;;;4984977;28;19996;-75
2022/11/20 06:41:06;;;;;;;;;;;0.50;99.90;;;;;;4935382;28;206217;-74
2022/11/20 06:43:33;;;;;;;;;;;0.50;99.90;;;;;;4980080;28;19922;-74
2022/11/20 06:45:59;;;;;;;;;;;0.50;99.90;;;;;;4955881;28;190259;-74
2022/11/20 06:48:26;;;;;;;;;;;0.50;99.90;;;;;;5009050;28;19954;-75
2022/11/20 06:50:52;;;;;;;;;;;0.50;99.90;;;;;;4951063;28;210951;-74
2022/11/20 06:53:18;;;;;;;;;;;0.60;99.90;;;;;;5000497;28;19937;-74
2022/11/20 06:55:47;;;;;;;;;;;0.50;99.90;;;;;;4946047;28;207701;-74
2022/11/20 06:58:13;;;;;;;;;;;0.50;99.90;;;;;;5006375;28;19930;-76
2022/11/20 07:00:40;;;;;;;;;;;0.50;99.90;;;;;;4949748;28;225428;-75
2022/11/20 07:03:06;;;;;;;;;;;0.60;99.90;;;;;;4999281;28;19942;-75
2022/11/20 07:05:32;;;;;;;;;;;0.60;99.90;;;;;;4922987;28;208792;-75
2022/11/20 07:07:58;;;;;;;;;;;0.60;99.90;;;;;;4992329;28;19929;-74
2022/11/20 07:10:25;;;;;;;;;;;0.50;99.90;;;;;;4935960;28;209289;-74
2022/11/20 07:12:56;;;;;;;;;;;0.50;99.90;;;;;;5013808;28;19926;-74
2022/11/20 07:15:22;;;;;;;;;;;0.50;99.90;;;;;;4972614;28;150714;-74
2022/11/20 07:17:48;;;;;;;;;;;0.50;99.90;;;;;;4991608;28;19930;-75
2022/11/20 07:20:16;;;;;;;;;;;0.50;99.90;;;;;;4947872;28;217193;-75
2022/11/20 07:22:42;;;;;;;;;;;0.50;99.90;;;;;;4983568;28;19922;-75
2022/11/20 07:25:08;;;;;;;;;;;0.50;99.90;;;;;;4969297;28;215749;-75
2022/11/20 07:27:36;;;;;;;;;;;0.50;99.90;;;;;;5006300;28;19926;-75
2022/11/20 07:30:04;;;;;;;;;;;0.50;99.90;;;;;;4957854;28;206831;-75
2022/11/20 07:32:30;;;;;;;;;;;0.50;99.90;;;;;;4999325;28;19922;-75
2022/11/20 07:34:55;;;;;;;;;;;0.50;99.90;;;;;;4983243;28;212579;-75
2022/11/20 07:37:21;;;;;;;;;;;0.50;99.90;;;;;;4929593;28;205847;-78
2022/11/20 07:39:47;;;;;;;;;;;0.50;99.90;;;;;;4976220;28;20302;-74
2022/11/20 07:42:13;;;;;;;;;;;0.50;99.90;;;;;;4963198;28;152290;-75
2022/11/20 07:44:39;;;;;;;;;;;0.50;99.90;;;;;;5021040;28;21108;-74
2022/11/20 07:47:05;;;;;;;;;;;0.60;99.90;;;;;;4973576;28;208860;-75
2022/11/20 07:49:31;;;;;;;;;;;0.60;99.90;;;;;;5007036;28;19936;-76
2022/11/20 07:51:57;;;;;;;;;;;0.60;99.90;;;;;;4966082;28;174136;-74
2022/11/20 07:54:23;;;;;;;;;;;0.60;99.90;;;;;;5012374;28;19922;-74
2022/11/20 07:56:49;;;;;;;;;;;0.70;99.90;;;;;;4964418;28;207185;-75
2022/11/20 07:59:17;;;;;;;;;;;0.70;99.90;;;;;;4976922;28;19929;-75
2022/11/20 08:01:43;;;;;;;;;;;0.70;99.90;;;;;;4975249;28;207297;-75
2022/11/20 08:04:09;;;;;;;;;;;0.70;99.90;;;;;;4985119;28;19922;-76
2022/11/20 08:06:35;;;;;;;;;;;0.70;99.90;;;;;;4958666;28;159536;-75
2022/11/20 08:09:02;;;;;;;;;;;0.70;99.90;;;;;;4972579;28;19937;-75
2022/11/20 08:14:14;;;;;;;;;;;0.80;99.90;;;;;;4983026;28;19922;-76
2022/11/20 08:16:40;;;;;;;;;;;0.70;99.90;;;;;;4959314;28;171351;-75
2022/11/20 08:19:07;;;;;;;;;;;0.70;99.90;;;;;;5010615;28;20222;-74
2022/11/20 08:21:33;;;;;;;;;;;0.70;99.90;;;;;;4948311;28;206744;-75
2022/11/20 08:23:59;;;;;;;;;;;0.80;99.90;;;;;;4980730;28;19926;-75
2022/11/20 08:26:31;;;;;;;;;;;0.80;99.90;;;;;;4970563;28;85303;-79
2022/11/20 08:28:58;;;;;;;;;;;0.80;99.90;;;;;;5003206;28;19922;-76
2022/11/20 08:31:25;;;;;;;;;;;0.80;99.90;;;;;;4972932;28;159868;-76
2022/11/20 08:33:51;;;;;;;;;;;0.90;99.90;;;;;;4977942;28;19933;-78
2022/11/20 08:36:17;;;;;;;;;;;0.90;99.90;;;;;;4946711;28;203611;-78
2022/11/20 08:38:48;;;;;;;;;;;0.90;99.90;;;;;;4990988;28;19922;-76
2022/11/20 08:41:25;;;;;;;;;;;0.90;99.90;;;;;;4959577;28;220779;-76
2022/11/20 08:43:52;;;;;;;;;;;0.90;99.90;;;;;;4995232;28;20001;-70
2022/11/20 08:46:18;;;;;;;;;;;1.00;99.90;;;;;;4923396;28;219999;-72
2022/11/20 08:48:44;;;;;;;;;;;1.00;99.90;;;;;;4964416;28;19926;-73
2022/11/20 08:51:10;;;;;;;;;;;1.00;99.90;;;;;;4948283;28;126737;-73
2022/11/20 08:53:36;;;;;;;;;;;1.10;99.90;;;;;;4988017;28;19931;-73
2022/11/20 08:56:02;;;;;;;;;;;1.10;99.90;;;;;;4965465;28;80175;-74
2022/11/20 08:58:28;;;;;;;;;;;1.10;99.90;;;;;;4982493;28;19929;-72
2022/11/20 09:00:54;;;;;;;;;;;1.10;99.90;;;;;;4952416;28;227988;-73
2022/11/20 09:03:20;;;;;;;;;;;1.10;99.90;;;;;;5003076;28;19922;-73
2022/11/20 09:05:46;;;;;;;;;;;1.10;99.90;;;;;;4936573;28;206311;-73
2022/11/20 09:08:12;;;;;;;;;;;1.20;99.90;;;;;;4984074;28;19938;-74
2022/11/20 09:10:39;;;;;;;;;;;1.20;99.90;;;;;;4945058;28;201563;-73
2022/11/20 09:13:05;;;;;;;;;;;1.30;99.90;;;;;;4983010;28;19933;-73
2022/11/20 09:15:31;;;;;;;;;;;1.30;99.90;;;;;;4931360;28;209883;-75
2022/11/20 09:17:58;;;;;;;;;;;1.30;99.90;;;;;;4964979;28;19934;-75
2022/11/20 09:20:25;;;;;;;;;;;1.30;99.90;;;;;;4937563;28;167746;-73
2022/11/20 09:22:51;;;;;;;;;;;1.40;99.90;;;;;;5003999;28;19944;-74
2022/11/20 09:25:17;;;;;;;;;;;1.40;99.90;;;;;;4936711;28;213172;-73
2022/11/20 09:27:45;;;;;;;;;;;1.40;99.90;;;;;;5012269;28;19926;-73
2022/11/20 09:30:12;;;;;;;;;;;1.50;99.90;;;;;;4951072;28;215455;-73
2022/11/20 09:32:44;;;;;;;;;;;1.50;99.90;;;;;;5018107;28;19926;-73
2022/11/20 09:35:10;;;;;;;;;;;1.50;99.90;;;;;;4968831;28;208275;-73
2022/11/20 09:37:37;;;;;;;;;;;1.50;99.90;;;;;;5007445;28;19926;-73
2022/11/20 09:40:04;;;;;;;;;;;1.50;99.90;;;;;;4961435;28;208923;-72
2022/11/20 09:42:32;;;;;;;;;;;1.50;99.90;;;;;;5002406;28;20387;-72
2022/11/20 09:45:18;;;;;;;;;;;1.50;99.90;;;;;;4991268;28;209405;-73
2022/11/20 09:47:54;;;;;;;;;;;1.50;99.90;;;;;;4957655;28;19926;-71
2022/11/20 09:50:24;;;;;;;;;;;1.60;99.90;;;;;;4961345;28;134170;-72
2022/11/20 09:52:53;;;;;;;;;;;1.60;99.90;;;;;;5000873;28;19918;-72
2022/11/20 09:55:19;;;;;;;;;;;1.70;99.90;;;;;;4928333;28;206658;-71
2022/11/20 09:57:46;;;;;;;;;;;1.70;99.90;;;;;;4968570;28;19961;-72
2022/11/20 10:00:14;;;;;;;;;;;1.80;99.90;;;;;;4925169;28;209243;-72
2022/11/20 10:02:47;;;;;;;;;;;1.80;99.90;;;;;;5019185;28;19925;-71
2022/11/20 10:05:19;;;;;;;;;;;1.80;99.90;;;;;;4921462;28;209903;-71
2022/11/20 10:07:55;;;;;;;;;;;1.90;99.90;;;;;;5014447;28;19933;-71
2022/11/20 10:10:33;;;;;;;;;;;2.00;99.90;;;;;;4960475;28;107336;-71
2022/11/20 10:13:11;;;;;;;;;;;2.00;99.90;;;;;;4993136;28;19933;-71
2022/11/20 10:15:47;;;;;;;;;;;2.10;99.90;;;;;;4947492;28;210088;-70
2022/11/20 10:18:13;;;;;;;;;;;2.10;99.90;;;;;;4988131;28;20311;-71
2022/11/20 10:20:46;;;;;;;;;;;2.20;99.90;;;;;;4938287;28;206954;-71
2022/11/20 10:23:30;;;;;;;;;;;2.30;99.90;;;;;;4991979;28;19932;-70
2022/11/20 10:26:04;;;;;;;;;;;2.40;99.90;;;;;;4957176;28;208891;-71
2022/11/20 10:28:33;;;;;;;;;;;2.50;99.90;;;;;;4983823;28;19930;-72
2022/11/20 10:31:11;;;;;;;;;;;2.70;99.90;;;;;;4964601;28;132849;-72
2022/11/20 10:33:39;;;;;;;;;;;2.80;99.90;;;;;;4982360;28;19933;-72
2022/11/20 10:36:08;;;;;;;;;;;2.90;99.90;;;;;;4948203;28;207828;-72
2022/11/20 10:38:40;;;;;;;;;;;3.10;99.90;;;;;;4982967;28;19922;-73
2022/11/20 10:41:24;;;;;;;;;;;3.10;99.90;;;;;;4919224;28;210487;-72
2022/11/20 10:43:53;;;;;;;;;;;3.20;99.90;;;;;;4959905;28;19926;-73
2022/11/20 10:46:22;;;;;;;;;;;3.20;99.90;;;;;;4924007;28;211159;-73
2022/11/20 10:48:48;;;;;;;;;;;3.10;99.90;;;;;;4971701;28;19922;-73
2022/11/20 10:51:17;;;;;;;;;;;3.00;99.90;;;;;;4932488;28;207750;-72
2022/11/20 10:54:01;;;;;;;;;;;2.90;99.90;;;;;;4980835;28;19922;-72
2022/11/20 10:56:34;;;;;;;;;;;2.90;99.90;;;;;;4944474;28;186765;-72
2022/11/20 10:59:12;;;;;;;;;;;3.00;99.90;;;;;;4960194;28;20522;-71
2022/11/20 11:01:41;;;;;;;;;;;3.00;99.90;;;;;;4931986;28;207915;-71
2022/11/20 11:04:18;;;;;;;;;;;3.10;99.90;;;;;;4983645;28;21051;-71
2022/11/20 11:06:47;;;;;;;;;;;3.20;99.90;;;;;;4960620;28;213489;-72
2022/11/20 11:09:16;;;;;;;;;;;3.20;99.90;;;;;;4976075;28;19922;-71
2022/11/20 11:11:42;;;;;;;;;;;3.20;99.90;;;;;;4964148;28;219238;-73
2022/11/20 11:14:09;;;;;;;;;;;3.30;99.90;;;;;;4955705;28;19937;-72
2022/11/20 11:16:35;;;;;;;;;;;3.20;99.90;;;;;;4979700;28;129725;-73
2022/11/20 11:19:04;;;;;;;;;;;3.30;99.90;;;;;;4985475;28;19942;-73
2022/11/20 11:21:30;;;;;;;;;;;3.40;99.90;;;;;;4969423;28;209939;-72
2022/11/20 11:24:00;;;;;;;;;;;3.40;99.90;;;;;;4985149;28;19954;-72
2022/11/20 11:26:27;;;;;;;;;;;3.40;99.90;;;;;;4934391;28;205749;-72
2022/11/20 11:28:57;;;;;;;;;;;3.50;99.90;;;;;;4989471;28;19922;-72
2022/11/20 11:31:27;;;;;;;;;;;3.40;99.90;;;;;;4927371;28;217668;-72
2022/11/20 11:34:04;;;;;;;;;;;3.40;99.90;;;;;;4959746;28;20407;-72
2022/11/20 11:36:31;;;;;;;;;;;3.50;99.90;;;;;;4946609;28;201561;-73
2022/11/20 11:38:57;;;;;;;;;;;3.60;99.90;;;;;;4979427;28;19930;-72
2022/11/20 11:41:25;;;;;;;;;;;3.60;99.90;;;;;;4943350;28;213045;-73
2022/11/20 11:46:40;;;;;;;;;;;3.70;99.90;;;;;;4975428;28;152452;-72
2022/11/20 11:49:09;;;;;;;;;;;3.70;99.90;;;;;;4980719;28;20299;-71
2022/11/20 11:51:35;;;;;;;;;;;3.80;99.90;;;;;;4967992;28;134640;-72
2022/11/20 11:54:03;;;;;;;;;;;3.90;99.90;;;;;;4985450;28;19981;-73
2022/11/20 11:56:30;;;;;;;;;;;4.10;99.90;;;;;;4930463;28;209965;-72
2022/11/20 11:58:59;;;;;;;;;;;4.40;99.90;;;;;;4959335;28;19926;-73
2022/11/20 12:01:30;;;;;;;;;;;4.60;99.90;;;;;;4949420;28;227159;-72
2022/11/20 12:04:14;;;;;;;;;;;5.50;99.90;;;;;;4983209;28;19976;-72
2022/11/20 12:06:42;;;;;;;;;;;6.60;99.90;;;;;;4956003;28;173602;-73
2022/11/20 12:09:09;;;;;;;;;;;7.70;99.90;;;;;;4978332;28;19922;-73
2022/11/20 12:11:54;;;;;;;;;;;9.00;99.90;;;;;;4959264;28;203111;-73
2022/11/20 12:14:23;;;;;;;;;;;9.90;99.90;;;;;;5007267;28;19995;-73
2022/11/20 12:16:50;;;;;;;;;;;11.10;99.90;;;;;;4948870;28;235159;-73
2022/11/20 12:19:16;;;;;;;;;;;11.80;98.40;;;;;;4965882;28;19923;-72
2022/11/20 12:21:54;;;;;;;;;;;11.80;91.50;;;;;;4947880;28;207927;-73
2022/11/20 12:24:28;;;;;;;;;;;11.90;94.90;;;;;;4982077;28;19933;-73
2022/11/20 12:26:57;;;;;;;;;;;11.20;94.30;;;;;;4955677;28;206073;-73
2022/11/20 12:29:23;;;;;;;;;;;10.20;93.30;;;;;;4970631;28;19926;-72
2022/11/20 12:32:03;;;;;;;;;;;9.10;94.20;;;;;;4972270;28;157094;-73
2022/11/20 12:34:48;;;;;;;;;;;8.20;95.20;;;;;;4989650;28;20410;-73
2022/11/20 12:37:24;;;;;;;;;;;7.50;96.80;;;;;;4974111;28;152243;-73
2022/11/20 12:39:50;;;;;;;;;;;7.10;96.90;;;;;;5006439;28;19926;-72
2022/11/20 12:45:17;;;;;;;;;;;6.90;97.80;;;;;;4924195;28;230455;-72
2022/11/20 12:47:52;;;;;;;;;;;7.90;97.30;;;;;;4993724;28;20403;-73
2022/11/20 12:50:24;;;;;;;;;;;9.10;98.10;;;;;;4924993;28;205673;-72
2022/11/20 12:52:56;;;;;;;;;;;10.70;98.70;;;;;;4997998;28;19928;-73
2022/11/20 12:55:22;;;;;;;;;;;11.80;96.20;;;;;;4945826;28;182520;-73
2022/11/20 12:58:07;;;;;;;;;;;11.30;95.20;;;;;;4994842;28;20287;-74
2022/11/20 13:00:34;;;;;;;;;;;11.80;93.20;;;;;;4947157;28;186186;-74
2022/11/20 13:03:07;;;;;;;;;;;11.10;92.30;;;;;;5001273;28;20497;-73
2022/11/20 13:05:49;;;;;;;;;;;9.70;93.10;;;;;;4932425;28;210333;-74
2022/11/20 13:08:19;;;;;;;;;;;8.40;93.00;;;;;;5002624;28;19929;-73
2022/11/20 13:10:49;;;;;;;;;;;7.40;93.40;;;;;;4946575;28;207932;-74
2022/11/20 13:13:23;;;;;;;;;;;7.00;95.00;;;;;;4974382;28;20596;-73
2022/11/20 13:16:01;;;;;;;;;;;6.60;95.50;;;;;;4968804;28;155334;-74
2022/11/20 13:18:38;;;;;;;;;;;6.70;96.60;;;;;;4988301;28;19922;-73
2022/11/20 13:21:13;;;;;;;;;;;6.80;97.00;;;;;;4964827;28;167031;-73
2022/11/20 13:23:39;;;;;;;;;;;7.10;98.20;;;;;;4974353;28;20498;-73
2022/11/20 13:26:13;;;;;;;;;;;7.50;97.60;;;;;;4967259;28;130989;-72
2022/11/20 13:28:40;;;;;;;;;;;7.70;97.10;;;;;;4980405;28;19933;-73
2022/11/20 13:31:24;;;;;;;;;;;7.40;97.20;;;;;;4946052;28;230809;-73
2022/11/20 13:33:53;;;;;;;;;;;7.10;96.80;;;;;;4990744;28;19933;-73
2022/11/20 13:36:21;;;;;;;;;;;6.80;96.30;;;;;;4969038;28;208167;-73
2022/11/20 13:38:48;;;;;;;;;;;6.50;96.20;;;;;;4977085;28;19937;-73
2022/11/20 13:41:33;;;;;;;;;;;6.20;97.80;;;;;;4968677;28;191962;-74
2022/11/20 13:44:06;;;;;;;;;;;6.00;98.00;;;;;;4977598;28;19929;-73
2022/11/20 13:46:43;;;;;;;;;;;5.80;98.20;;;;;;4954379;28;211590;-74
2022/11/20 13:49:28;;;;;;;;;;;5.60;98.30;;;;;;4979395;28;19922;-74
2022/11/20 13:52:06;;;;;;;;;;;5.40;98.70;;;;;;4954857;28;159099;-73
2022/11/20 13:54:32;;;;;;;;;;;5.20;98.70;;;;;;4971677;28;19949;-74
2022/11/20 13:56:58;;;;;;;;;;;5.10;99.20;;;;;;4972752;28;210887;-74
2022/11/20 13:59:43;;;;;;;;;;;5.00;99.80;;;;;;4988016;28;19922;-74
2022/11/20 14:02:17;;;;;;;;;;;4.90;99.70;;;;;;4977489;28;204921;-74
2022/11/20 14:04:45;;;;;;;;;;;4.80;99.90;;;;;;4981791;28;19937;-74
2022/11/20 14:07:11;;;;;;;;;;;4.70;99.90;;;;;;4942641;28;161054;-74
2022/11/20 14:09:37;;;;;;;;;;;4.70;99.90;;;;;;5011422;28;19933;-74
2022/11/20 14:12:18;;;;;;;;;;;4.60;99.90;;;;;;4961007;28;205650;-74
2022/11/20 14:14:49;;;;;;;;;;;4.60;99.90;;;;;;4976321;28;19926;-73
2022/11/20 14:17:19;;;;;;;;;;;4.50;99.90;;;;;;4961134;28;199699;-74
2022/11/20 14:19:46;;;;;;;;;;;4.50;99.90;;;;;;4980464;28;20435;-73
2022/11/20 14:22:18;;;;;;;;;;;4.40;99.90;;;;;;4954098;28;165504;-74
2022/11/20 14:24:44;;;;;;;;;;;4.40;99.90;;;;;;5004155;28;20352;-74
2022/11/20 14:27:12;;;;;;;;;;;4.30;99.90;;;;;;4976943;28;187693;-74
2022/11/20 14:29:40;;;;;;;;;;;4.30;99.90;;;;;;5005280;28;20311;-73
2022/11/20 14:32:06;;;;;;;;;;;4.20;99.90;;;;;;4976048;28;132889;-74
2022/11/20 14:34:35;;;;;;;;;;;4.20;99.90;;;;;;4976454;28;20296;-73
2022/11/20 14:37:03;;;;;;;;;;;4.10;99.90;;;;;;4973561;28;160414;-74
2022/11/20 14:39:31;;;;;;;;;;;4.10;99.90;;;;;;4983361;28;19926;-73
2022/11/20 14:41:57;;;;;;;;;;;4.00;99.90;;;;;;4961892;28;140338;-73
2022/11/20 14:44:26;;;;;;;;;;;4.00;99.90;;;;;;5006172;28;20020;-73
2022/11/20 14:46:52;;;;;;;;;;;3.90;99.90;;;;;;4941948;28;148384;-73